sensor_id;sensor_type;location;lat;lon;timestamp;P1;durP1;ratioP1;P2;durP2;ratioP2
85791;SDS011;76235;42.028;23.096;2024-03-02T00:02:17;30.33;;;13.63;;
85791;SDS011;76235;42.028;23.096;2024-03-02T00:04:46;25.30;;;12.23;;
85791;SDS011;76235;42.028;23.096;2024-03-02T00:07:13;24.75;;;12.52;;
85791;SDS011;76235;42.028;23.096;2024-03-02T00:12:05;27.50;;;12.20;;
85791;SDS011;76235;42.028;23.096;2024-03-02T00:14:32;25.98;;;12.10;;
85791;SDS011;76235;42.028;23.096;2024-03-02T00:16:58;27.30;;;13.63;;
85791;SDS011;76235;42.028;23.096;2024-03-02T00:19:24;27.67;;;12.75;;
85791;SDS011;76235;42.028;23.096;2024-03-02T00:21:50;25.80;;;12.30;;
85791;SDS011;76235;42.028;23.096;2024-03-02T00:26:45;26.73;;;12.20;;
85791;SDS011;76235;42.028;23.096;2024-03-02T00:29:12;24.25;;;12.30;;
85791;SDS011;76235;42.028;23.096;2024-03-02T00:31:41;24.08;;;11.27;;
85791;SDS011;76235;42.028;23.096;2024-03-02T00:34:07;24.13;;;11.30;;
85791;SDS011;76235;42.028;23.096;2024-03-02T00:36:35;24.65;;;11.25;;
85791;SDS011;76235;42.028;23.096;2024-03-02T00:39:01;26.42;;;11.65;;
85791;SDS011;76235;42.028;23.096;2024-03-02T00:41:29;26.90;;;11.10;;
85791;SDS011;76235;42.028;23.096;2024-03-02T00:44:04;24.65;;;10.85;;
85791;SDS011;76235;42.028;23.096;2024-03-02T00:46:34;25.55;;;13.48;;
85791;SDS011;76235;42.028;23.096;2024-03-02T00:49:00;22.45;;;11.32;;
85791;SDS011;76235;42.028;23.096;2024-03-02T00:51:28;23.13;;;10.18;;
85791;SDS011;76235;42.028;23.096;2024-03-02T00:53:57;27.08;;;12.70;;
85791;SDS011;76235;42.028;23.096;2024-03-02T00:56:23;26.27;;;11.93;;
85791;SDS011;76235;42.028;23.096;2024-03-02T00:58:50;26.83;;;11.77;;
85791;SDS011;76235;42.028;23.096;2024-03-02T01:01:16;27.10;;;11.98;;
85791;SDS011;76235;42.028;23.096;2024-03-02T01:03:43;24.40;;;11.98;;
85791;SDS011;76235;42.028;23.096;2024-03-02T01:06:09;27.50;;;12.23;;
85791;SDS011;76235;42.028;23.096;2024-03-02T01:08:35;27.05;;;12.98;;
85791;SDS011;76235;42.028;23.096;2024-03-02T01:11:02;23.73;;;11.63;;
85791;SDS011;76235;42.028;23.096;2024-03-02T01:13:28;24.60;;;11.57;;
85791;SDS011;76235;42.028;23.096;2024-03-02T01:15:54;24.05;;;11.52;;
85791;SDS011;76235;42.028;23.096;2024-03-02T01:18:20;23.75;;;11.57;;
85791;SDS011;76235;42.028;23.096;2024-03-02T01:20:47;26.02;;;12.77;;
85791;SDS011;76235;42.028;23.096;2024-03-02T01:23:13;30.23;;;14.02;;
85791;SDS011;76235;42.028;23.096;2024-03-02T01:25:39;25.15;;;11.48;;
85791;SDS011;76235;42.028;23.096;2024-03-02T01:28:05;26.50;;;12.48;;
85791;SDS011;76235;42.028;23.096;2024-03-02T01:30:32;27.80;;;11.90;;
85791;SDS011;76235;42.028;23.096;2024-03-02T01:33:00;26.60;;;13.25;;
85791;SDS011;76235;42.028;23.096;2024-03-02T01:35:27;27.23;;;11.98;;
85791;SDS011;76235;42.028;23.096;2024-03-02T01:37:53;28.75;;;13.98;;
85791;SDS011;76235;42.028;23.096;2024-03-02T01:40:19;26.25;;;10.85;;
85791;SDS011;76235;42.028;23.096;2024-03-02T01:42:46;27.67;;;12.05;;
85791;SDS011;76235;42.028;23.096;2024-03-02T01:45:12;26.50;;;11.23;;
85791;SDS011;76235;42.028;23.096;2024-03-02T01:47:38;25.45;;;12.18;;
85791;SDS011;76235;42.028;23.096;2024-03-02T01:50:04;24.15;;;11.63;;
85791;SDS011;76235;42.028;23.096;2024-03-02T01:52:30;28.20;;;12.32;;
85791;SDS011;76235;42.028;23.096;2024-03-02T01:54:56;25.35;;;11.30;;
85791;SDS011;76235;42.028;23.096;2024-03-02T01:57:22;24.50;;;11.25;;
85791;SDS011;76235;42.028;23.096;2024-03-02T01:59:48;24.63;;;12.07;;
85791;SDS011;76235;42.028;23.096;2024-03-02T02:02:16;25.23;;;11.98;;
85791;SDS011;76235;42.028;23.096;2024-03-02T02:04:42;26.38;;;11.85;;
85791;SDS011;76235;42.028;23.096;2024-03-02T02:07:08;27.15;;;11.77;;
85791;SDS011;76235;42.028;23.096;2024-03-02T02:09:34;24.63;;;10.90;;
85791;SDS011;76235;42.028;23.096;2024-03-02T02:12:00;26.60;;;12.38;;
85791;SDS011;76235;42.028;23.096;2024-03-02T02:14:27;26.63;;;11.60;;
85791;SDS011;76235;42.028;23.096;2024-03-02T02:16:53;26.42;;;12.75;;
85791;SDS011;76235;42.028;23.096;2024-03-02T02:19:19;27.58;;;12.20;;
85791;SDS011;76235;42.028;23.096;2024-03-02T02:21:45;24.92;;;11.52;;
85791;SDS011;76235;42.028;23.096;2024-03-02T02:24:11;24.40;;;11.35;;
85791;SDS011;76235;42.028;23.096;2024-03-02T02:26:38;23.67;;;11.45;;
85791;SDS011;76235;42.028;23.096;2024-03-02T02:29:04;25.77;;;10.75;;
85791;SDS011;76235;42.028;23.096;2024-03-02T02:31:37;29.50;;;12.43;;
85791;SDS011;76235;42.028;23.096;2024-03-02T02:34:04;22.92;;;11.25;;
85791;SDS011;76235;42.028;23.096;2024-03-02T02:36:30;25.55;;;9.95;;
85791;SDS011;76235;42.028;23.096;2024-03-02T02:38:56;24.48;;;10.75;;
85791;SDS011;76235;42.028;23.096;2024-03-02T02:41:22;24.00;;;10.50;;
85791;SDS011;76235;42.028;23.096;2024-03-02T02:43:48;25.58;;;12.13;;
85791;SDS011;76235;42.028;23.096;2024-03-02T02:46:14;24.63;;;11.88;;
85791;SDS011;76235;42.028;23.096;2024-03-02T02:48:40;20.85;;;10.20;;
85791;SDS011;76235;42.028;23.096;2024-03-02T02:51:06;26.00;;;11.77;;
85791;SDS011;76235;42.028;23.096;2024-03-02T02:53:33;25.08;;;11.55;;
85791;SDS011;76235;42.028;23.096;2024-03-02T02:56:00;21.65;;;10.02;;
85791;SDS011;76235;42.028;23.096;2024-03-02T02:58:26;23.08;;;10.77;;
85791;SDS011;76235;42.028;23.096;2024-03-02T03:00:52;25.75;;;12.07;;
85791;SDS011;76235;42.028;23.096;2024-03-02T03:03:21;22.50;;;10.02;;
85791;SDS011;76235;42.028;23.096;2024-03-02T03:05:48;27.38;;;12.32;;
85791;SDS011;76235;42.028;23.096;2024-03-02T03:08:14;24.08;;;11.60;;
85791;SDS011;76235;42.028;23.096;2024-03-02T03:10:41;24.63;;;11.88;;
85791;SDS011;76235;42.028;23.096;2024-03-02T03:13:09;22.08;;;10.55;;
85791;SDS011;76235;42.028;23.096;2024-03-02T03:15:35;24.50;;;11.23;;
85791;SDS011;76235;42.028;23.096;2024-03-02T03:18:02;24.25;;;11.60;;
85791;SDS011;76235;42.028;23.096;2024-03-02T03:20:28;28.92;;;12.18;;
85791;SDS011;76235;42.028;23.096;2024-03-02T03:22:55;24.27;;;10.88;;
85791;SDS011;76235;42.028;23.096;2024-03-02T03:25:21;25.80;;;13.10;;
85791;SDS011;76235;42.028;23.096;2024-03-02T03:27:47;24.75;;;12.00;;
85791;SDS011;76235;42.028;23.096;2024-03-02T03:30:13;22.65;;;9.80;;
85791;SDS011;76235;42.028;23.096;2024-03-02T03:32:39;22.70;;;10.95;;
85791;SDS011;76235;42.028;23.096;2024-03-02T03:35:06;23.83;;;11.25;;
85791;SDS011;76235;42.028;23.096;2024-03-02T03:37:32;23.95;;;10.90;;
85791;SDS011;76235;42.028;23.096;2024-03-02T03:40:02;23.17;;;10.60;;
85791;SDS011;76235;42.028;23.096;2024-03-02T03:42:32;23.65;;;12.10;;
85791;SDS011;76235;42.028;23.096;2024-03-02T03:44:58;28.65;;;12.25;;
85791;SDS011;76235;42.028;23.096;2024-03-02T03:47:24;21.75;;;10.57;;
85791;SDS011;76235;42.028;23.096;2024-03-02T03:49:50;26.83;;;11.55;;
85791;SDS011;76235;42.028;23.096;2024-03-02T03:52:16;23.42;;;11.73;;
85791;SDS011;76235;42.028;23.096;2024-03-02T03:54:42;26.20;;;11.90;;
85791;SDS011;76235;42.028;23.096;2024-03-02T03:57:09;21.42;;;10.52;;
85791;SDS011;76235;42.028;23.096;2024-03-02T03:59:35;23.38;;;10.32;;
85791;SDS011;76235;42.028;23.096;2024-03-02T04:02:04;26.30;;;11.90;;
85791;SDS011;76235;42.028;23.096;2024-03-02T04:04:30;23.30;;;11.23;;
85791;SDS011;76235;42.028;23.096;2024-03-02T04:06:56;28.33;;;11.43;;
85791;SDS011;76235;42.028;23.096;2024-03-02T04:09:22;27.95;;;13.95;;
85791;SDS011;76235;42.028;23.096;2024-03-02T04:11:48;24.45;;;11.02;;
85791;SDS011;76235;42.028;23.096;2024-03-02T04:14:14;22.50;;;10.98;;
85791;SDS011;76235;42.028;23.096;2024-03-02T04:16:40;26.73;;;13.02;;
85791;SDS011;76235;42.028;23.096;2024-03-02T04:19:06;31.67;;;13.57;;
85791;SDS011;76235;42.028;23.096;2024-03-02T04:21:32;23.83;;;10.85;;
85791;SDS011;76235;42.028;23.096;2024-03-02T04:23:58;27.40;;;12.15;;
85791;SDS011;76235;42.028;23.096;2024-03-02T04:26:24;28.67;;;12.90;;
85791;SDS011;76235;42.028;23.096;2024-03-02T04:28:53;28.92;;;13.57;;
85791;SDS011;76235;42.028;23.096;2024-03-02T04:31:19;30.15;;;14.02;;
85791;SDS011;76235;42.028;23.096;2024-03-02T04:33:45;25.73;;;13.27;;
85791;SDS011;76235;42.028;23.096;2024-03-02T04:36:11;25.88;;;11.93;;
85791;SDS011;76235;42.028;23.096;2024-03-02T04:38:38;29.63;;;13.07;;
85791;SDS011;76235;42.028;23.096;2024-03-02T04:41:04;21.77;;;11.38;;
85791;SDS011;76235;42.028;23.096;2024-03-02T04:43:34;25.92;;;12.02;;
85791;SDS011;76235;42.028;23.096;2024-03-02T04:46:00;25.17;;;11.45;;
85791;SDS011;76235;42.028;23.096;2024-03-02T04:48:26;26.33;;;13.35;;
85791;SDS011;76235;42.028;23.096;2024-03-02T04:50:52;26.08;;;11.63;;
85791;SDS011;76235;42.028;23.096;2024-03-02T04:53:18;24.00;;;11.98;;
85791;SDS011;76235;42.028;23.096;2024-03-02T04:55:44;25.48;;;11.80;;
85791;SDS011;76235;42.028;23.096;2024-03-02T04:58:30;24.20;;;12.98;;
85791;SDS011;76235;42.028;23.096;2024-03-02T05:00:56;29.48;;;13.30;;
85791;SDS011;76235;42.028;23.096;2024-03-02T05:03:22;27.85;;;13.88;;
85791;SDS011;76235;42.028;23.096;2024-03-02T05:05:49;29.80;;;12.43;;
85791;SDS011;76235;42.028;23.096;2024-03-02T05:08:15;25.55;;;11.65;;
85791;SDS011;76235;42.028;23.096;2024-03-02T05:10:42;25.15;;;12.15;;
85791;SDS011;76235;42.028;23.096;2024-03-02T05:13:09;24.70;;;12.93;;
85791;SDS011;76235;42.028;23.096;2024-03-02T05:18:01;25.15;;;12.88;;
85791;SDS011;76235;42.028;23.096;2024-03-02T05:20:30;27.52;;;13.23;;
85791;SDS011;76235;42.028;23.096;2024-03-02T05:22:56;25.98;;;11.40;;
85791;SDS011;76235;42.028;23.096;2024-03-02T05:25:22;27.52;;;12.23;;
85791;SDS011;76235;42.028;23.096;2024-03-02T05:27:48;30.27;;;13.60;;
85791;SDS011;76235;42.028;23.096;2024-03-02T05:30:14;26.92;;;13.27;;
85791;SDS011;76235;42.028;23.096;2024-03-02T05:32:40;27.95;;;13.63;;
85791;SDS011;76235;42.028;23.096;2024-03-02T05:35:06;26.35;;;12.63;;
85791;SDS011;76235;42.028;23.096;2024-03-02T05:37:33;25.58;;;12.52;;
85791;SDS011;76235;42.028;23.096;2024-03-02T05:39:59;24.88;;;12.30;;
85791;SDS011;76235;42.028;23.096;2024-03-02T05:42:25;22.30;;;11.30;;
85791;SDS011;76235;42.028;23.096;2024-03-02T05:44:52;26.02;;;11.30;;
85791;SDS011;76235;42.028;23.096;2024-03-02T05:47:18;25.33;;;10.90;;
85791;SDS011;76235;42.028;23.096;2024-03-02T05:49:44;24.25;;;11.43;;
85791;SDS011;76235;42.028;23.096;2024-03-02T05:52:10;21.75;;;9.77;;
85791;SDS011;76235;42.028;23.096;2024-03-02T05:54:37;23.38;;;12.05;;
85791;SDS011;76235;42.028;23.096;2024-03-02T05:57:04;26.42;;;11.63;;
85791;SDS011;76235;42.028;23.096;2024-03-02T05:59:56;20.20;;;9.52;;
85791;SDS011;76235;42.028;23.096;2024-03-02T06:02:22;16.25;;;9.05;;
85791;SDS011;76235;42.028;23.096;2024-03-02T06:04:48;20.45;;;10.50;;
85791;SDS011;76235;42.028;23.096;2024-03-02T06:07:14;21.98;;;10.52;;
85791;SDS011;76235;42.028;23.096;2024-03-02T06:09:40;22.52;;;10.52;;
85791;SDS011;76235;42.028;23.096;2024-03-02T06:12:07;24.15;;;10.98;;
85791;SDS011;76235;42.028;23.096;2024-03-02T06:14:33;29.15;;;9.45;;
85791;SDS011;76235;42.028;23.096;2024-03-02T06:16:59;21.90;;;9.95;;
85791;SDS011;76235;42.028;23.096;2024-03-02T06:19:25;21.98;;;9.52;;
85791;SDS011;76235;42.028;23.096;2024-03-02T06:24:18;18.60;;;8.20;;
85791;SDS011;76235;42.028;23.096;2024-03-02T06:26:44;19.10;;;8.77;;
85791;SDS011;76235;42.028;23.096;2024-03-02T06:29:10;18.92;;;8.95;;
85791;SDS011;76235;42.028;23.096;2024-03-02T06:31:36;20.52;;;11.82;;
85791;SDS011;76235;42.028;23.096;2024-03-02T06:34:02;21.75;;;10.32;;
85791;SDS011;76235;42.028;23.096;2024-03-02T06:38:55;23.35;;;10.65;;
85791;SDS011;76235;42.028;23.096;2024-03-02T06:41:21;22.05;;;10.63;;
85791;SDS011;76235;42.028;23.096;2024-03-02T06:43:47;22.85;;;11.23;;
85791;SDS011;76235;42.028;23.096;2024-03-02T06:46:13;20.17;;;10.50;;
85791;SDS011;76235;42.028;23.096;2024-03-02T06:48:40;21.05;;;11.02;;
85791;SDS011;76235;42.028;23.096;2024-03-02T06:51:06;22.63;;;10.20;;
85791;SDS011;76235;42.028;23.096;2024-03-02T06:53:32;20.58;;;10.60;;
85791;SDS011;76235;42.028;23.096;2024-03-02T06:55:58;19.70;;;10.85;;
85791;SDS011;76235;42.028;23.096;2024-03-02T06:58:25;20.52;;;9.80;;
85791;SDS011;76235;42.028;23.096;2024-03-02T07:00:50;17.77;;;9.40;;
85791;SDS011;76235;42.028;23.096;2024-03-02T07:03:17;21.75;;;10.65;;
85791;SDS011;76235;42.028;23.096;2024-03-02T07:05:43;19.30;;;9.50;;
85791;SDS011;76235;42.028;23.096;2024-03-02T07:08:09;22.23;;;9.65;;
85791;SDS011;76235;42.028;23.096;2024-03-02T07:10:35;20.48;;;9.93;;
85791;SDS011;76235;42.028;23.096;2024-03-02T07:13:01;23.27;;;11.27;;
85791;SDS011;76235;42.028;23.096;2024-03-02T07:15:28;19.77;;;10.35;;
85791;SDS011;76235;42.028;23.096;2024-03-02T07:18:12;25.58;;;12.10;;
85791;SDS011;76235;42.028;23.096;2024-03-02T07:20:39;25.25;;;12.55;;
85791;SDS011;76235;42.028;23.096;2024-03-02T07:23:05;23.13;;;11.85;;
85791;SDS011;76235;42.028;23.096;2024-03-02T07:25:31;22.15;;;11.52;;
85791;SDS011;76235;42.028;23.096;2024-03-02T07:27:57;21.23;;;11.18;;
85791;SDS011;76235;42.028;23.096;2024-03-02T07:30:23;20.58;;;10.88;;
85791;SDS011;76235;42.028;23.096;2024-03-02T07:32:52;21.30;;;10.90;;
85791;SDS011;76235;42.028;23.096;2024-03-02T07:35:18;20.33;;;9.77;;
85791;SDS011;76235;42.028;23.096;2024-03-02T07:37:44;22.70;;;12.18;;
85791;SDS011;76235;42.028;23.096;2024-03-02T07:40:10;20.40;;;9.63;;
85791;SDS011;76235;42.028;23.096;2024-03-02T07:42:37;21.55;;;10.32;;
85791;SDS011;76235;42.028;23.096;2024-03-02T07:45:04;21.67;;;10.88;;
85791;SDS011;76235;42.028;23.096;2024-03-02T07:47:31;21.00;;;9.93;;
85791;SDS011;76235;42.028;23.096;2024-03-02T07:49:57;20.77;;;10.23;;
85791;SDS011;76235;42.028;23.096;2024-03-02T07:52:23;20.65;;;10.52;;
85791;SDS011;76235;42.028;23.096;2024-03-02T07:54:49;23.10;;;10.88;;
85791;SDS011;76235;42.028;23.096;2024-03-02T07:57:16;25.08;;;11.82;;
85791;SDS011;76235;42.028;23.096;2024-03-02T07:59:42;17.52;;;10.40;;
85791;SDS011;76235;42.028;23.096;2024-03-02T08:02:08;19.08;;;10.32;;
85791;SDS011;76235;42.028;23.096;2024-03-02T08:04:34;19.90;;;9.68;;
85791;SDS011;76235;42.028;23.096;2024-03-02T08:07:01;20.42;;;10.60;;
85791;SDS011;76235;42.028;23.096;2024-03-02T08:09:28;17.88;;;8.30;;
85791;SDS011;76235;42.028;23.096;2024-03-02T08:11:54;20.50;;;10.85;;
85791;SDS011;76235;42.028;23.096;2024-03-02T08:14:21;19.60;;;9.68;;
85791;SDS011;76235;42.028;23.096;2024-03-02T08:16:47;18.10;;;8.73;;
85791;SDS011;76235;42.028;23.096;2024-03-02T08:19:13;18.50;;;9.18;;
85791;SDS011;76235;42.028;23.096;2024-03-02T08:21:39;17.65;;;9.13;;
85791;SDS011;76235;42.028;23.096;2024-03-02T08:24:05;18.10;;;8.52;;
85791;SDS011;76235;42.028;23.096;2024-03-02T08:26:31;17.83;;;8.98;;
85791;SDS011;76235;42.028;23.096;2024-03-02T08:28:58;19.52;;;9.82;;
85791;SDS011;76235;42.028;23.096;2024-03-02T08:31:26;17.25;;;8.85;;
85791;SDS011;76235;42.028;23.096;2024-03-02T08:33:52;19.50;;;9.60;;
85791;SDS011;76235;42.028;23.096;2024-03-02T08:36:18;16.38;;;8.80;;
85791;SDS011;76235;42.028;23.096;2024-03-02T08:38:44;15.57;;;8.13;;
85791;SDS011;76235;42.028;23.096;2024-03-02T08:41:10;16.10;;;8.30;;
85791;SDS011;76235;42.028;23.096;2024-03-02T08:43:40;18.02;;;9.43;;
85791;SDS011;76235;42.028;23.096;2024-03-02T08:46:07;19.80;;;9.15;;
85791;SDS011;76235;42.028;23.096;2024-03-02T08:48:33;15.52;;;9.35;;
85791;SDS011;76235;42.028;23.096;2024-03-02T08:50:59;18.08;;;8.75;;
85791;SDS011;76235;42.028;23.096;2024-03-02T08:53:25;16.58;;;8.20;;
85791;SDS011;76235;42.028;23.096;2024-03-02T08:55:51;16.58;;;9.40;;
85791;SDS011;76235;42.028;23.096;2024-03-02T08:58:17;19.13;;;10.18;;
85791;SDS011;76235;42.028;23.096;2024-03-02T09:00:43;21.70;;;11.65;;
85791;SDS011;76235;42.028;23.096;2024-03-02T09:03:09;18.98;;;11.07;;
85791;SDS011;76235;42.028;23.096;2024-03-02T09:05:36;18.35;;;10.55;;
85791;SDS011;76235;42.028;23.096;2024-03-02T09:08:02;18.60;;;10.63;;
85791;SDS011;76235;42.028;23.096;2024-03-02T09:10:28;18.50;;;9.90;;
85791;SDS011;76235;42.028;23.096;2024-03-02T09:12:54;19.95;;;9.40;;
85791;SDS011;76235;42.028;23.096;2024-03-02T09:15:20;17.83;;;10.35;;
85791;SDS011;76235;42.028;23.096;2024-03-02T09:17:46;18.73;;;10.32;;
85791;SDS011;76235;42.028;23.096;2024-03-02T09:20:13;17.73;;;9.05;;
85791;SDS011;76235;42.028;23.096;2024-03-02T09:22:39;15.85;;;8.95;;
85791;SDS011;76235;42.028;23.096;2024-03-02T09:25:05;18.58;;;8.55;;
85791;SDS011;76235;42.028;23.096;2024-03-02T09:27:35;21.85;;;12.40;;
85791;SDS011;76235;42.028;23.096;2024-03-02T09:30:01;21.10;;;11.23;;
85791;SDS011;76235;42.028;23.096;2024-03-02T09:32:27;15.40;;;9.13;;
85791;SDS011;76235;42.028;23.096;2024-03-02T09:34:53;15.68;;;9.43;;
85791;SDS011;76235;42.028;23.096;2024-03-02T09:37:20;13.05;;;6.22;;
85791;SDS011;76235;42.028;23.096;2024-03-02T09:39:46;11.15;;;5.65;;
85791;SDS011;76235;42.028;23.096;2024-03-02T09:42:12;12.25;;;5.95;;
85791;SDS011;76235;42.028;23.096;2024-03-02T09:44:39;13.82;;;6.38;;
85791;SDS011;76235;42.028;23.096;2024-03-02T09:47:06;12.20;;;6.65;;
85791;SDS011;76235;42.028;23.096;2024-03-02T09:49:32;11.70;;;5.97;;
85791;SDS011;76235;42.028;23.096;2024-03-02T09:51:58;12.80;;;6.57;;
85791;SDS011;76235;42.028;23.096;2024-03-02T09:54:24;10.98;;;6.30;;
85791;SDS011;76235;42.028;23.096;2024-03-02T09:56:51;9.68;;;4.90;;
85791;SDS011;76235;42.028;23.096;2024-03-02T09:59:17;9.32;;;4.47;;
85791;SDS011;76235;42.028;23.096;2024-03-02T10:04:26;11.30;;;4.70;;
85791;SDS011;76235;42.028;23.096;2024-03-02T10:11:44;12.23;;;5.75;;
85791;SDS011;76235;42.028;23.096;2024-03-02T10:14:11;11.73;;;5.85;;
85791;SDS011;76235;42.028;23.096;2024-03-02T10:16:38;9.73;;;4.03;;
85791;SDS011;76235;42.028;23.096;2024-03-02T10:24:06;11.00;;;4.65;;
85791;SDS011;76235;42.028;23.096;2024-03-02T10:26:32;10.63;;;4.68;;
85791;SDS011;76235;42.028;23.096;2024-03-02T10:28:58;10.52;;;4.55;;
85791;SDS011;76235;42.028;23.096;2024-03-02T10:31:25;12.05;;;5.75;;
85791;SDS011;76235;42.028;23.096;2024-03-02T10:33:55;10.98;;;4.70;;
85791;SDS011;76235;42.028;23.096;2024-03-02T10:36:23;11.75;;;4.22;;
85791;SDS011;76235;42.028;23.096;2024-03-02T10:38:50;9.57;;;4.65;;
85791;SDS011;76235;42.028;23.096;2024-03-02T10:41:20;9.95;;;5.20;;
85791;SDS011;76235;42.028;23.096;2024-03-02T10:43:50;10.93;;;5.00;;
85791;SDS011;76235;42.028;23.096;2024-03-02T10:46:16;11.00;;;6.07;;
85791;SDS011;76235;42.028;23.096;2024-03-02T10:48:44;10.52;;;5.65;;
85791;SDS011;76235;42.028;23.096;2024-03-02T10:51:12;10.70;;;5.20;;
85791;SDS011;76235;42.028;23.096;2024-03-02T10:53:38;11.27;;;4.70;;
85791;SDS011;76235;42.028;23.096;2024-03-02T10:56:04;12.88;;;6.28;;
85791;SDS011;76235;42.028;23.096;2024-03-02T10:58:33;11.55;;;5.28;;
85791;SDS011;76235;42.028;23.096;2024-03-02T11:01:00;9.18;;;4.43;;
85791;SDS011;76235;42.028;23.096;2024-03-02T11:03:28;9.45;;;4.35;;
85791;SDS011;76235;42.028;23.096;2024-03-02T11:05:55;9.63;;;5.00;;
85791;SDS011;76235;42.028;23.096;2024-03-02T11:08:22;9.43;;;4.03;;
85791;SDS011;76235;42.028;23.096;2024-03-02T11:10:57;8.20;;;3.72;;
85791;SDS011;76235;42.028;23.096;2024-03-02T11:13:27;8.80;;;3.42;;
85791;SDS011;76235;42.028;23.096;2024-03-02T11:15:58;7.47;;;3.38;;
85791;SDS011;76235;42.028;23.096;2024-03-02T11:18:25;10.23;;;5.28;;
85791;SDS011;76235;42.028;23.096;2024-03-02T11:20:52;13.40;;;5.93;;
85791;SDS011;76235;42.028;23.096;2024-03-02T11:23:20;15.15;;;6.85;;
85791;SDS011;76235;42.028;23.096;2024-03-02T11:26:16;13.75;;;7.07;;
85791;SDS011;76235;42.028;23.096;2024-03-02T11:28:43;12.73;;;6.07;;
85791;SDS011;76235;42.028;23.096;2024-03-02T11:31:09;11.20;;;5.30;;
85791;SDS011;76235;42.028;23.096;2024-03-02T11:33:35;11.10;;;5.05;;
85791;SDS011;76235;42.028;23.096;2024-03-02T11:36:01;9.43;;;3.85;;
85791;SDS011;76235;42.028;23.096;2024-03-02T11:38:27;9.98;;;4.63;;
85791;SDS011;76235;42.028;23.096;2024-03-02T11:40:54;9.45;;;4.70;;
85791;SDS011;76235;42.028;23.096;2024-03-02T11:43:20;9.48;;;4.05;;
85791;SDS011;76235;42.028;23.096;2024-03-02T11:45:46;8.68;;;4.10;;
85791;SDS011;76235;42.028;23.096;2024-03-02T11:48:15;9.43;;;4.00;;
85791;SDS011;76235;42.028;23.096;2024-03-02T11:50:42;11.32;;;3.97;;
85791;SDS011;76235;42.028;23.096;2024-03-02T11:53:12;7.72;;;3.33;;
85791;SDS011;76235;42.028;23.096;2024-03-02T11:55:39;8.65;;;3.40;;
85791;SDS011;76235;42.028;23.096;2024-03-02T11:58:14;10.63;;;5.35;;
85791;SDS011;76235;42.028;23.096;2024-03-02T12:00:55;14.88;;;6.53;;
85791;SDS011;76235;42.028;23.096;2024-03-02T12:03:23;9.98;;;5.55;;
85791;SDS011;76235;42.028;23.096;2024-03-02T12:05:50;10.38;;;5.55;;
85791;SDS011;76235;42.028;23.096;2024-03-02T12:08:16;9.95;;;4.57;;
85791;SDS011;76235;42.028;23.096;2024-03-02T12:10:42;9.85;;;4.78;;
85791;SDS011;76235;42.028;23.096;2024-03-02T12:13:09;11.38;;;4.53;;
85791;SDS011;76235;42.028;23.096;2024-03-02T12:15:38;10.88;;;5.25;;
85791;SDS011;76235;42.028;23.096;2024-03-02T12:18:07;8.90;;;3.83;;
85791;SDS011;76235;42.028;23.096;2024-03-02T12:20:33;10.30;;;3.20;;
85791;SDS011;76235;42.028;23.096;2024-03-02T12:23:01;8.27;;;4.30;;
85791;SDS011;76235;42.028;23.096;2024-03-02T12:25:27;8.23;;;4.45;;
85791;SDS011;76235;42.028;23.096;2024-03-02T12:28:00;8.57;;;4.38;;
85791;SDS011;76235;42.028;23.096;2024-03-02T12:30:27;9.27;;;3.88;;
85791;SDS011;76235;42.028;23.096;2024-03-02T12:32:54;11.45;;;4.30;;
85791;SDS011;76235;42.028;23.096;2024-03-02T12:35:20;8.45;;;3.85;;
85791;SDS011;76235;42.028;23.096;2024-03-02T12:37:48;8.32;;;3.80;;
85791;SDS011;76235;42.028;23.096;2024-03-02T12:40:15;7.35;;;3.33;;
85791;SDS011;76235;42.028;23.096;2024-03-02T12:42:43;9.15;;;4.45;;
85791;SDS011;76235;42.028;23.096;2024-03-02T12:45:10;7.53;;;3.03;;
85791;SDS011;76235;42.028;23.096;2024-03-02T12:47:36;7.13;;;2.75;;
85791;SDS011;76235;42.028;23.096;2024-03-02T12:50:03;6.97;;;3.05;;
85791;SDS011;76235;42.028;23.096;2024-03-02T12:52:52;7.15;;;3.15;;
85791;SDS011;76235;42.028;23.096;2024-03-02T12:55:19;7.60;;;3.58;;
85791;SDS011;76235;42.028;23.096;2024-03-02T12:57:47;6.55;;;2.50;;
85791;SDS011;76235;42.028;23.096;2024-03-02T13:00:13;8.00;;;2.53;;
85791;SDS011;76235;42.028;23.096;2024-03-02T13:02:40;7.20;;;2.78;;
85791;SDS011;76235;42.028;23.096;2024-03-02T13:05:06;7.30;;;2.90;;
85791;SDS011;76235;42.028;23.096;2024-03-02T13:07:36;9.57;;;3.47;;
85791;SDS011;76235;42.028;23.096;2024-03-02T13:10:02;8.85;;;2.75;;
85791;SDS011;76235;42.028;23.096;2024-03-02T13:12:29;7.15;;;2.88;;
85791;SDS011;76235;42.028;23.096;2024-03-02T13:17:22;12.05;;;5.22;;
85791;SDS011;76235;42.028;23.096;2024-03-02T13:19:57;7.93;;;3.45;;
85791;SDS011;76235;42.028;23.096;2024-03-02T13:22:24;8.02;;;3.30;;
85791;SDS011;76235;42.028;23.096;2024-03-02T13:24:50;7.95;;;3.10;;
85791;SDS011;76235;42.028;23.096;2024-03-02T13:27:17;8.02;;;3.83;;
85791;SDS011;76235;42.028;23.096;2024-03-02T13:29:46;7.75;;;3.17;;
85791;SDS011;76235;42.028;23.096;2024-03-02T13:32:13;8.07;;;3.20;;
85791;SDS011;76235;42.028;23.096;2024-03-02T13:34:39;8.73;;;3.92;;
85791;SDS011;76235;42.028;23.096;2024-03-02T13:37:05;10.02;;;5.00;;
85791;SDS011;76235;42.028;23.096;2024-03-02T13:39:31;7.78;;;3.63;;
85791;SDS011;76235;42.028;23.096;2024-03-02T13:42:00;8.05;;;3.10;;
85791;SDS011;76235;42.028;23.096;2024-03-02T13:44:30;7.88;;;3.30;;
85791;SDS011;76235;42.028;23.096;2024-03-02T13:46:57;8.05;;;2.50;;
85791;SDS011;76235;42.028;23.096;2024-03-02T13:49:23;12.23;;;5.47;;
85791;SDS011;76235;42.028;23.096;2024-03-02T13:51:49;13.38;;;7.15;;
85791;SDS011;76235;42.028;23.096;2024-03-02T13:54:15;7.47;;;3.85;;
85791;SDS011;76235;42.028;23.096;2024-03-02T13:56:43;10.52;;;6.18;;
85791;SDS011;76235;42.028;23.096;2024-03-02T13:59:09;9.25;;;4.18;;
85791;SDS011;76235;42.028;23.096;2024-03-02T14:01:35;9.75;;;5.03;;
85791;SDS011;76235;42.028;23.096;2024-03-02T14:04:01;6.68;;;2.67;;
85791;SDS011;76235;42.028;23.096;2024-03-02T14:06:27;7.28;;;2.95;;
85791;SDS011;76235;42.028;23.096;2024-03-02T14:08:53;9.13;;;3.38;;
85791;SDS011;76235;42.028;23.096;2024-03-02T14:11:19;8.68;;;2.97;;
85791;SDS011;76235;42.028;23.096;2024-03-02T14:13:45;9.27;;;4.65;;
85791;SDS011;76235;42.028;23.096;2024-03-02T14:16:14;6.45;;;2.90;;
85791;SDS011;76235;42.028;23.096;2024-03-02T14:18:41;8.30;;;2.58;;
85791;SDS011;76235;42.028;23.096;2024-03-02T14:21:08;9.55;;;4.28;;
85791;SDS011;76235;42.028;23.096;2024-03-02T14:23:34;10.10;;;3.95;;
85791;SDS011;76235;42.028;23.096;2024-03-02T14:26:00;7.82;;;3.75;;
85791;SDS011;76235;42.028;23.096;2024-03-02T14:28:26;8.88;;;3.17;;
85791;SDS011;76235;42.028;23.096;2024-03-02T14:30:53;6.50;;;3.33;;
85791;SDS011;76235;42.028;23.096;2024-03-02T14:33:19;7.80;;;3.80;;
85791;SDS011;76235;42.028;23.096;2024-03-02T14:35:46;8.73;;;3.00;;
85791;SDS011;76235;42.028;23.096;2024-03-02T14:38:12;7.78;;;3.35;;
85791;SDS011;76235;42.028;23.096;2024-03-02T14:40:38;8.38;;;4.47;;
85791;SDS011;76235;42.028;23.096;2024-03-02T14:43:04;9.45;;;3.05;;
85791;SDS011;76235;42.028;23.096;2024-03-02T14:45:31;6.78;;;2.40;;